createdAt,value
2018-07-14T00:02:10.083Z,18.60
2018-07-14T00:04:40.163Z,18.60
2018-07-14T00:07:09.308Z,18.60
2018-07-14T00:09:38.384Z,18.60
2018-07-14T00:12:07.470Z,18.50
2018-07-14T00:14:36.562Z,18.50
2018-07-14T00:17:05.891Z,18.60
2018-07-14T00:19:35.002Z,18.50
2018-07-14T00:22:04.080Z,18.50
2018-07-14T00:24:33.144Z,18.50
2018-07-14T00:27:02.311Z,18.50
2018-07-14T00:29:32.160Z,18.40
2018-07-14T00:32:01.238Z,18.40
2018-07-14T00:34:30.360Z,18.40
2018-07-14T00:36:59.504Z,18.40
2018-07-14T00:39:28.565Z,18.30
2018-07-14T00:41:57.614Z,18.30
2018-07-14T00:44:26.763Z,18.30
2018-07-14T00:46:55.904Z,18.30
2018-07-14T00:49:25.986Z,18.30
2018-07-14T00:51:55.056Z,18.30
2018-07-14T00:54:24.180Z,18.30
2018-07-14T00:59:22.093Z,18.30
2018-07-14T01:01:51.141Z,18.30
2018-07-14T01:04:20.225Z,18.30
2018-07-14T01:06:49.346Z,18.30
2018-07-14T01:09:18.366Z,18.20
2018-07-14T01:11:47.426Z,18.20
2018-07-14T01:14:16.512Z,18.20
2018-07-14T01:16:45.573Z,18.10
2018-07-14T01:19:14.636Z,18.10
2018-07-14T01:21:43.681Z,18.10
2018-07-14T01:24:12.759Z,18.00
2018-07-14T01:26:44.215Z,18.00
2018-07-14T01:29:14.431Z,18.00
2018-07-14T01:31:43.577Z,18.00
2018-07-14T01:36:41.531Z,18.00
2018-07-14T01:39:10.683Z,17.90
2018-07-14T01:41:39.764Z,18.00
2018-07-14T01:44:09.010Z,17.90
2018-07-14T01:46:38.142Z,17.90
2018-07-14T01:49:07.239Z,17.90
2018-07-14T01:51:36.377Z,17.90
2018-07-14T01:54:05.554Z,17.80
2018-07-14T01:56:34.623Z,17.80
2018-07-14T01:59:04.359Z,17.80
2018-07-14T02:01:33.508Z,17.70
2018-07-14T02:04:02.788Z,17.70
2018-07-14T02:06:31.883Z,17.60
2018-07-14T02:09:00.996Z,17.60
2018-07-14T02:11:30.166Z,17.50
2018-07-14T02:13:59.213Z,17.50
2018-07-14T02:18:57.070Z,17.40
2018-07-14T02:21:26.441Z,17.40
2018-07-14T02:23:55.604Z,17.30
2018-07-14T02:26:24.770Z,17.30
2018-07-14T02:28:53.900Z,17.30
2018-07-14T02:31:22.976Z,17.30
2018-07-14T02:33:52.151Z,17.20
2018-07-14T02:36:21.267Z,17.10
2018-07-14T02:38:50.400Z,17.10
2018-07-14T02:41:19.471Z,17.10
2018-07-14T02:43:48.604Z,17.10
2018-07-14T02:46:17.670Z,17.00
2018-07-14T02:48:46.776Z,17.00
2018-07-14T02:51:15.854Z,17.00
2018-07-14T02:53:44.918Z,17.00
2018-07-14T02:56:14.138Z,17.00
2018-07-14T02:58:43.249Z,16.90
2018-07-14T03:01:12.286Z,16.90
2018-07-14T03:03:41.393Z,16.90
2018-07-14T03:06:10.444Z,16.80
2018-07-14T03:08:39.488Z,16.90
2018-07-14T03:11:08.574Z,16.80
2018-07-14T03:13:37.708Z,16.80
2018-07-14T03:16:06.863Z,16.80
2018-07-14T03:18:35.939Z,16.80
2018-07-14T03:21:05.019Z,16.80
2018-07-14T03:23:34.142Z,16.90
2018-07-14T03:26:03.222Z,16.80
2018-07-14T03:28:32.359Z,16.80
2018-07-14T03:33:30.106Z,16.80
2018-07-14T03:35:59.259Z,16.80
2018-07-14T03:38:28.348Z,16.80
2018-07-14T03:40:57.421Z,16.80
2018-07-14T03:45:55.192Z,16.70
2018-07-14T03:48:24.289Z,16.70
2018-07-14T03:53:22.100Z,16.70
2018-07-14T03:55:51.238Z,16.60
2018-07-14T03:58:21.173Z,16.60
2018-07-14T04:00:50.328Z,16.50
2018-07-14T04:03:19.444Z,16.50
2018-07-14T04:05:48.517Z,16.50
2018-07-14T04:08:17.633Z,16.40
2018-07-14T04:10:46.707Z,16.40
2018-07-14T04:13:15.799Z,16.40
2018-07-14T04:15:44.927Z,16.40
2018-07-14T04:18:14.117Z,16.40
2018-07-14T04:20:43.209Z,16.40
2018-07-14T04:23:12.299Z,16.40
2018-07-14T04:25:41.450Z,16.30
2018-07-14T04:28:10.569Z,16.20
2018-07-14T04:30:40.820Z,16.20
2018-07-14T04:33:09.918Z,16.10
2018-07-14T04:35:38.991Z,16.10
2018-07-14T04:38:08.056Z,16.10
2018-07-14T04:40:37.172Z,16.10
2018-07-14T04:43:06.276Z,16.10
2018-07-14T04:45:35.386Z,16.10
2018-07-14T04:48:04.464Z,16.10
2018-07-14T04:50:33.580Z,16.10
2018-07-14T04:53:02.691Z,16.10
2018-07-14T04:55:31.732Z,16.20
2018-07-14T04:58:00.828Z,16.30
2018-07-14T05:00:29.906Z,16.30
2018-07-14T05:02:59.014Z,16.30
2018-07-14T05:05:28.094Z,16.30
2018-07-14T05:07:57.193Z,16.40
2018-07-14T05:10:26.226Z,16.40
2018-07-14T05:12:55.324Z,16.40
2018-07-14T05:15:24.384Z,16.40
2018-07-14T05:17:53.516Z,16.40
2018-07-14T05:20:22.651Z,16.40
2018-07-14T05:25:20.675Z,16.50
2018-07-14T05:27:49.762Z,16.60
2018-07-14T05:30:19.501Z,16.70
2018-07-14T05:32:48.592Z,16.70
2018-07-14T05:35:17.665Z,16.70
2018-07-14T05:37:46.740Z,16.80
2018-07-14T05:40:16.733Z,16.70
2018-07-14T05:45:14.509Z,16.70
2018-07-14T05:50:12.370Z,17.00
2018-07-14T05:52:41.508Z,17.20
2018-07-14T05:55:10.619Z,17.20
2018-07-14T05:57:39.731Z,17.40
2018-07-14T06:00:09.453Z,17.30
2018-07-14T06:02:38.566Z,17.20
2018-07-14T06:05:07.643Z,17.30
2018-07-14T06:07:36.773Z,17.30
2018-07-14T06:10:05.874Z,17.40
2018-07-14T06:12:34.993Z,17.40
2018-07-14T06:15:04.164Z,17.40
2018-07-14T06:20:01.964Z,17.50
2018-07-14T06:22:31.070Z,17.60
2018-07-14T06:25:00.211Z,17.80
2018-07-14T06:27:29.315Z,18.10
2018-07-14T06:29:58.429Z,18.20
2018-07-14T06:32:27.522Z,18.10
2018-07-14T06:34:56.622Z,18.00
2018-07-14T06:37:25.785Z,17.90
2018-07-14T06:39:54.905Z,18.00
2018-07-14T06:42:24.027Z,17.90
2018-07-14T06:44:53.097Z,18.00
2018-07-14T06:49:50.983Z,18.30
2018-07-14T06:52:20.129Z,18.30
2018-07-14T06:54:49.191Z,18.20
2018-07-14T06:57:18.297Z,18.20
2018-07-14T06:59:47.464Z,18.30
2018-07-14T07:02:16.845Z,18.40
2018-07-14T07:04:46.158Z,18.50
2018-07-14T07:07:15.289Z,18.60
2018-07-14T07:09:44.516Z,18.60
2018-07-14T07:12:13.713Z,18.80
2018-07-14T07:14:42.859Z,19.00
2018-07-14T07:17:12.059Z,19.10
2018-07-14T07:19:41.261Z,19.20
2018-07-14T07:22:10.377Z,19.30
2018-07-14T07:24:39.559Z,19.30
2018-07-14T07:27:08.684Z,19.10
2018-07-14T07:29:37.955Z,19.00
2018-07-14T07:32:07.198Z,19.00
2018-07-14T07:34:36.414Z,19.00
2018-07-14T07:42:03.379Z,19.60
2018-07-14T07:44:32.478Z,19.40
2018-07-14T07:47:01.578Z,19.30
2018-07-14T07:49:30.652Z,19.30
2018-07-14T07:51:59.731Z,19.30
2018-07-14T07:54:28.874Z,19.40
2018-07-14T07:59:26.633Z,19.90
2018-07-14T08:01:55.670Z,20.00
2018-07-14T08:04:24.836Z,20.10
2018-07-14T08:06:53.830Z,20.20
2018-07-14T08:11:51.659Z,20.50
2018-07-14T08:14:20.714Z,20.40
2018-07-14T08:16:49.839Z,20.40
2018-07-14T08:19:19.149Z,20.30
2018-07-14T08:21:48.448Z,20.20
2018-07-14T08:24:17.600Z,20.20
2018-07-14T08:29:15.394Z,20.30
2018-07-14T08:31:44.532Z,20.50
2018-07-14T08:34:13.687Z,20.60
2018-07-14T08:36:42.787Z,20.50
2018-07-14T08:39:11.928Z,20.40
2018-07-14T08:41:40.980Z,20.40
2018-07-14T08:44:10.106Z,20.40
2018-07-14T08:46:39.206Z,20.70
2018-07-14T08:49:08.345Z,20.60
2018-07-14T08:51:37.430Z,20.50
2018-07-14T08:54:06.549Z,20.70
2018-07-14T08:56:35.670Z,20.80
2018-07-14T08:59:04.742Z,21.00
2018-07-14T09:01:33.903Z,20.90
2018-07-14T09:04:03.066Z,20.90
2018-07-14T09:06:32.093Z,21.00
2018-07-14T09:09:01.164Z,21.00
2018-07-14T09:11:30.307Z,21.00
2018-07-14T09:13:59.434Z,21.20
2018-07-14T09:16:28.647Z,21.30
2018-07-14T09:18:57.702Z,21.30
2018-07-14T09:21:26.834Z,21.40
2018-07-14T09:23:55.926Z,21.50
2018-07-14T09:26:24.991Z,21.50
2018-07-14T09:28:54.130Z,21.30
2018-07-14T09:31:23.251Z,21.50
2018-07-14T09:33:52.454Z,21.50
2018-07-14T09:36:21.557Z,21.30
2018-07-14T09:38:51.153Z,21.20
2018-07-14T09:43:48.990Z,21.10
2018-07-14T09:46:18.057Z,21.00
2018-07-14T09:48:47.124Z,21.20
2018-07-14T09:53:45.000Z,21.20
2018-07-14T09:56:14.970Z,21.30
2018-07-14T09:58:44.088Z,21.40
2018-07-14T10:01:13.236Z,21.30
2018-07-14T10:03:42.303Z,21.30
2018-07-14T10:08:40.193Z,21.10
2018-07-14T10:11:09.313Z,21.10
2018-07-14T10:13:38.503Z,21.10
2018-07-14T10:16:07.593Z,21.10
2018-07-14T10:18:36.696Z,21.20
2018-07-14T10:21:05.883Z,21.40
2018-07-14T10:23:34.934Z,21.50
2018-07-14T10:26:04.262Z,21.60
2018-07-14T10:31:02.427Z,21.40
2018-07-14T10:33:31.563Z,21.60
2018-07-14T10:36:00.649Z,21.70
2018-07-14T10:40:59.515Z,21.70
2018-07-14T10:43:28.856Z,21.50
2018-07-14T10:48:26.987Z,21.60
2018-07-14T10:50:56.176Z,21.50
2018-07-14T10:53:25.241Z,21.70
2018-07-14T10:55:54.340Z,21.80
2018-07-14T10:58:23.436Z,22.00
2018-07-14T11:00:52.553Z,22.00
2018-07-14T11:03:21.695Z,22.10
2018-07-14T11:05:50.842Z,22.10
2018-07-14T11:08:20.479Z,22.00
2018-07-14T11:10:50.868Z,22.00
2018-07-14T11:13:20.248Z,22.00
2018-07-14T11:15:49.329Z,22.00
2018-07-14T11:18:18.475Z,22.00
2018-07-14T11:20:47.599Z,22.00
2018-07-14T11:23:16.679Z,21.90
2018-07-14T11:25:45.816Z,21.90
2018-07-14T11:30:43.652Z,22.10
2018-07-14T11:33:12.756Z,22.20
2018-07-14T11:35:41.829Z,22.30
2018-07-14T11:38:10.927Z,22.40
2018-07-14T11:40:40.060Z,22.40
2018-07-14T11:43:09.364Z,22.40
2018-07-14T11:50:35.905Z,22.30
2018-07-14T11:53:04.998Z,22.30
2018-07-14T11:55:34.122Z,22.20
2018-07-14T12:00:31.896Z,22.50
2018-07-14T12:03:00.967Z,22.80
2018-07-14T12:05:30.082Z,22.70
2018-07-14T12:07:59.174Z,22.50
2018-07-14T12:10:28.298Z,22.40
2018-07-14T12:12:57.429Z,22.40
2018-07-14T12:15:26.495Z,22.40
2018-07-14T12:17:55.676Z,22.70
2018-07-14T12:22:53.624Z,23.50
2018-07-14T12:25:22.740Z,23.90
2018-07-14T12:27:51.868Z,24.50
2018-07-14T12:30:21.150Z,25.10
2018-07-14T12:32:50.093Z,25.70
2018-07-14T12:35:19.199Z,26.00
2018-07-14T12:37:48.260Z,26.30
2018-07-14T12:40:17.307Z,26.80
2018-07-14T12:42:46.455Z,27.40
2018-07-14T12:45:15.516Z,27.60
2018-07-14T12:50:13.313Z,28.40
2018-07-14T12:52:42.460Z,28.60
2018-07-14T12:55:11.533Z,28.80
2018-07-14T12:57:40.540Z,28.50
2018-07-14T13:00:09.796Z,28.10
2018-07-14T13:02:39.038Z,28.80
2018-07-14T13:05:08.970Z,30.70
2018-07-14T13:07:38.026Z,31.70
2018-07-14T13:10:07.883Z,31.50
2018-07-14T13:12:37.245Z,31.70
2018-07-14T13:15:07.700Z,30.90
2018-07-14T13:17:36.914Z,31.10
2018-07-14T13:20:06.040Z,31.80
2018-07-14T13:22:35.172Z,32.90
2018-07-14T13:25:04.275Z,33.80
2018-07-14T13:27:33.362Z,34.80
2018-07-14T13:30:02.517Z,34.20
2018-07-14T13:35:00.210Z,33.10
2018-07-14T13:37:29.272Z,31.80
2018-07-14T13:44:55.854Z,30.90
2018-07-14T13:47:25.004Z,31.40
2018-07-14T13:49:54.253Z,32.30
2018-07-14T13:52:23.301Z,32.80
2018-07-14T13:54:52.379Z,32.60
2018-07-14T13:57:21.573Z,31.90
2018-07-14T13:59:50.764Z,31.60
2018-07-14T14:02:19.886Z,32.60
2018-07-14T14:04:49.003Z,32.10
2018-07-14T14:07:18.077Z,32.70
2018-07-14T14:09:47.212Z,31.90
2018-07-14T14:12:16.317Z,31.50
2018-07-14T14:14:46.035Z,31.60
2018-07-14T14:17:15.223Z,31.70
2018-07-14T14:19:44.352Z,32.70
2018-07-14T14:22:13.424Z,33.40
2018-07-14T14:24:42.539Z,32.80
2018-07-14T14:27:11.683Z,34.10
2018-07-14T14:29:41.306Z,33.60
2018-07-14T14:32:10.439Z,34.60
2018-07-14T14:34:39.657Z,34.40
2018-07-14T14:37:08.800Z,35.20
2018-07-14T14:39:37.879Z,35.70
2018-07-14T14:42:07.226Z,35.10
2018-07-14T14:44:36.376Z,33.80
2018-07-14T14:47:05.504Z,34.30
2018-07-14T14:49:34.538Z,34.40
2018-07-14T14:52:03.644Z,33.80
2018-07-14T14:57:01.465Z,32.90
2018-07-14T14:59:30.557Z,33.40
2018-07-14T15:01:59.668Z,33.60
2018-07-14T15:04:28.807Z,33.70
2018-07-14T15:06:57.899Z,34.20
2018-07-14T15:09:26.976Z,34.40
2018-07-14T15:11:56.270Z,35.20
2018-07-14T15:16:54.070Z,35.20
2018-07-14T15:19:23.161Z,35.50
2018-07-14T15:21:52.316Z,35.40
2018-07-14T15:24:21.426Z,35.00
2018-07-14T15:26:50.487Z,35.10
2018-07-14T15:29:19.582Z,35.50
2018-07-14T15:31:48.674Z,35.30
2018-07-14T15:34:17.720Z,35.60
2018-07-14T15:36:46.891Z,36.90
2018-07-14T15:39:15.934Z,37.50
2018-07-14T15:44:13.731Z,38.00
2018-07-14T15:46:42.835Z,36.00
2018-07-14T15:49:11.929Z,33.90
2018-07-14T15:51:41.585Z,34.70
2018-07-14T15:54:10.634Z,34.60
2018-07-14T15:56:39.713Z,34.80
2018-07-14T15:59:08.948Z,34.80
2018-07-14T16:01:38.012Z,34.90
2018-07-14T16:04:07.165Z,35.50
2018-07-14T16:06:36.281Z,35.00
2018-07-14T16:14:03.459Z,33.60
2018-07-14T16:19:01.848Z,35.30
2018-07-14T16:21:31.239Z,35.10
2018-07-14T16:24:00.498Z,34.30
2018-07-14T16:26:29.853Z,34.10
2018-07-14T16:31:27.672Z,33.90
2018-07-14T16:33:56.774Z,33.90
2018-07-14T16:36:27.990Z,34.40
2018-07-14T16:38:57.089Z,34.40
2018-07-14T16:41:26.157Z,35.70
2018-07-14T16:43:55.263Z,35.60
2018-07-14T16:48:53.043Z,31.20
2018-07-14T16:53:50.924Z,28.50
2018-07-14T16:56:20.108Z,27.40
2018-07-14T16:58:49.190Z,26.80
2018-07-14T17:01:18.335Z,26.40
2018-07-14T17:03:47.437Z,26.00
2018-07-14T17:06:16.500Z,25.60
2018-07-14T17:08:45.580Z,25.20
2018-07-14T17:11:14.677Z,25.00
2018-07-14T17:13:46.360Z,24.80
2018-07-14T17:16:19.156Z,24.70
2018-07-14T17:18:48.255Z,24.60
2018-07-14T17:21:17.373Z,24.60
2018-07-14T17:23:46.519Z,24.60
2018-07-14T17:28:44.556Z,24.50
2018-07-14T17:31:13.698Z,24.30
2018-07-14T17:36:11.593Z,24.00
2018-07-14T17:38:40.769Z,23.90
2018-07-14T17:41:09.978Z,23.80
2018-07-14T17:48:36.483Z,23.40
2018-07-14T17:51:05.869Z,23.30
2018-07-14T17:53:34.881Z,23.30
2018-07-14T17:56:04.309Z,23.30
2018-07-14T17:58:33.438Z,23.20
2018-07-14T18:01:02.484Z,23.10
2018-07-14T18:03:31.528Z,23.00
2018-07-14T18:06:00.623Z,22.90
2018-07-14T18:10:58.831Z,22.80
2018-07-14T18:13:27.952Z,22.70
2018-07-14T18:15:57.008Z,22.70
2018-07-14T18:18:26.239Z,22.60
2018-07-14T18:20:55.510Z,22.50
2018-07-14T18:23:24.617Z,22.50
2018-07-14T18:25:53.797Z,22.40
2018-07-14T18:28:22.955Z,22.40
2018-07-14T18:30:52.027Z,22.30
2018-07-14T18:33:21.177Z,22.30
2018-07-14T18:35:50.371Z,22.20
2018-07-14T18:40:48.173Z,22.10
2018-07-14T18:43:17.337Z,22.00
2018-07-14T18:50:44.691Z,21.70
2018-07-14T18:53:13.766Z,21.60
2018-07-14T18:55:42.889Z,21.50
2018-07-14T18:58:12.023Z,21.50
2018-07-14T19:00:41.180Z,21.40
2018-07-14T19:03:10.304Z,21.30
2018-07-14T19:05:39.384Z,21.30
2018-07-14T19:08:08.513Z,21.20
2018-07-14T19:10:37.563Z,21.00
2018-07-14T19:13:06.768Z,20.90
2018-07-14T19:15:35.933Z,20.80
2018-07-14T19:18:05.077Z,20.80
2018-07-14T19:23:02.898Z,20.60
2018-07-14T19:25:32.109Z,20.60
2018-07-14T19:28:01.530Z,20.50
2018-07-14T19:30:30.618Z,20.40
2018-07-14T19:32:59.642Z,20.30
2018-07-14T19:37:57.573Z,20.20
2018-07-14T19:40:26.618Z,20.20
2018-07-14T19:45:24.714Z,20.00
2018-07-14T19:47:53.962Z,19.90
2018-07-14T19:50:24.215Z,19.80
2018-07-14T19:52:53.276Z,19.80
2018-07-14T19:55:23.322Z,19.70
2018-07-14T19:57:52.631Z,19.70
2018-07-14T20:00:21.706Z,19.60
2018-07-14T20:02:50.822Z,19.60
2018-07-14T20:05:19.975Z,19.50
2018-07-14T20:07:49.311Z,19.50
2018-07-14T20:10:18.440Z,19.40
2018-07-14T20:12:47.558Z,19.30
2018-07-14T20:15:16.676Z,19.30
2018-07-14T20:17:45.696Z,19.20
2018-07-14T20:20:14.734Z,19.10
2018-07-14T20:22:44.122Z,19.10
2018-07-14T20:25:13.502Z,19.00
2018-07-14T20:35:08.736Z,18.80
2018-07-14T20:37:38.144Z,18.80
2018-07-14T20:40:07.235Z,18.70
2018-07-14T20:42:36.324Z,18.60
2018-07-14T20:45:05.407Z,18.50
2018-07-14T20:47:34.492Z,18.50
2018-07-14T20:50:03.624Z,18.40
2018-07-14T20:55:01.428Z,18.40
2018-07-14T20:57:30.546Z,18.30
2018-07-14T20:59:59.944Z,18.30
2018-07-14T21:02:29.010Z,18.20
2018-07-14T21:04:58.105Z,18.10
2018-07-14T21:07:27.217Z,18.10
2018-07-14T21:09:56.268Z,18.10
2018-07-14T21:12:25.486Z,18.00
2018-07-14T21:14:54.574Z,18.00
2018-07-14T21:19:52.376Z,17.80
2018-07-14T21:22:21.594Z,17.80
2018-07-14T21:24:50.684Z,17.80
2018-07-14T21:27:19.772Z,17.70
2018-07-14T21:29:48.806Z,17.70
2018-07-14T21:32:17.960Z,17.70
2018-07-14T21:34:47.032Z,17.60
2018-07-14T21:39:44.924Z,17.50
2018-07-14T21:42:14.018Z,17.50
2018-07-14T21:44:43.130Z,17.40
2018-07-14T21:47:12.162Z,17.40
2018-07-14T21:49:41.242Z,17.40
2018-07-14T21:52:10.283Z,17.30
2018-07-14T21:54:39.400Z,17.30
2018-07-14T21:57:09.081Z,17.30
2018-07-14T22:02:07.035Z,17.20
2018-07-14T22:04:36.562Z,17.20
2018-07-14T22:09:34.389Z,17.20
2018-07-14T22:12:03.560Z,17.10
2018-07-14T22:14:32.623Z,17.10
2018-07-14T22:17:03.132Z,17.10
2018-07-14T22:19:33.037Z,17.10
2018-07-14T22:22:02.185Z,17.10
2018-07-14T22:27:00.016Z,17.00
2018-07-14T22:29:29.178Z,16.90
2018-07-14T22:34:26.942Z,16.90
2018-07-14T22:39:24.750Z,16.90
2018-07-14T22:41:53.870Z,16.80
2018-07-14T22:44:22.942Z,16.80
2018-07-14T22:46:52.050Z,16.80
2018-07-14T22:49:21.195Z,16.80
2018-07-14T22:56:47.728Z,16.80
2018-07-14T22:59:16.781Z,16.70
2018-07-14T23:01:45.833Z,16.70
2018-07-14T23:04:14.893Z,16.70
2018-07-14T23:06:44.501Z,16.70
2018-07-14T23:09:15.251Z,16.60
2018-07-14T23:11:44.552Z,16.60
2018-07-14T23:14:13.759Z,16.60
2018-07-14T23:16:42.883Z,16.50
2018-07-14T23:19:11.988Z,16.50
2018-07-14T23:21:41.098Z,16.50
2018-07-14T23:24:10.211Z,16.50
2018-07-14T23:26:39.332Z,16.50
2018-07-14T23:29:08.443Z,16.50
2018-07-14T23:31:37.816Z,16.40
2018-07-14T23:34:06.979Z,16.40
2018-07-14T23:36:36.357Z,16.40
2018-07-14T23:41:35.284Z,16.30
2018-07-14T23:44:04.349Z,16.30
2018-07-14T23:46:33.446Z,16.30
2018-07-14T23:51:31.400Z,16.20
2018-07-14T23:54:00.498Z,16.20
2018-07-14T23:56:29.592Z,16.20
2018-07-14T23:58:58.721Z,16.20
